sensor_id;sensor_type;location;lat;lon;timestamp;P1;durP1;ratioP1;P2;durP2;ratioP2
19593;SDS011;9944;48.240;16.478;2023-08-17T00:01:06;8.65;;;5.40;;
19593;SDS011;9944;48.240;16.478;2023-08-17T00:05:11;8.82;;;5.60;;
19593;SDS011;9944;48.240;16.478;2023-08-17T00:09:15;8.27;;;5.63;;
19593;SDS011;9944;48.240;16.478;2023-08-17T00:13:18;6.90;;;5.25;;
19593;SDS011;9944;48.240;16.478;2023-08-17T00:17:22;6.93;;;5.28;;
19593;SDS011;9944;48.240;16.478;2023-08-17T00:21:27;7.80;;;6.05;;
19593;SDS011;9944;48.240;16.478;2023-08-17T00:25:31;7.85;;;5.82;;
19593;SDS011;9944;48.240;16.478;2023-08-17T00:29:35;7.03;;;5.78;;
19593;SDS011;9944;48.240;16.478;2023-08-17T00:33:39;11.15;;;6.18;;
19593;SDS011;9944;48.240;16.478;2023-08-17T00:37:44;9.52;;;5.65;;
19593;SDS011;9944;48.240;16.478;2023-08-17T00:41:47;8.82;;;6.20;;
19593;SDS011;9944;48.240;16.478;2023-08-17T00:45:50;8.30;;;5.25;;
19593;SDS011;9944;48.240;16.478;2023-08-17T00:49:55;9.27;;;6.13;;
19593;SDS011;9944;48.240;16.478;2023-08-17T00:54:01;9.00;;;6.25;;
19593;SDS011;9944;48.240;16.478;2023-08-17T00:58:05;8.43;;;5.95;;
19593;SDS011;9944;48.240;16.478;2023-08-17T01:02:08;7.43;;;5.88;;
19593;SDS011;9944;48.240;16.478;2023-08-17T01:06:12;8.48;;;5.43;;
19593;SDS011;9944;48.240;16.478;2023-08-17T01:10:17;6.57;;;5.30;;
19593;SDS011;9944;48.240;16.478;2023-08-17T01:14:22;6.75;;;5.22;;
19593;SDS011;9944;48.240;16.478;2023-08-17T01:18:31;6.72;;;4.93;;
19593;SDS011;9944;48.240;16.478;2023-08-17T01:22:38;6.28;;;5.30;;
19593;SDS011;9944;48.240;16.478;2023-08-17T01:26:46;8.27;;;5.60;;
19593;SDS011;9944;48.240;16.478;2023-08-17T01:30:51;6.75;;;5.22;;
19593;SDS011;9944;48.240;16.478;2023-08-17T01:35:01;8.93;;;5.30;;
19593;SDS011;9944;48.240;16.478;2023-08-17T01:39:11;8.23;;;5.45;;
19593;SDS011;9944;48.240;16.478;2023-08-17T01:43:20;8.18;;;5.38;;
19593;SDS011;9944;48.240;16.478;2023-08-17T01:47:23;9.25;;;6.40;;
19593;SDS011;9944;48.240;16.478;2023-08-17T01:51:28;8.65;;;5.32;;
19593;SDS011;9944;48.240;16.478;2023-08-17T01:55:32;7.05;;;5.88;;
19593;SDS011;9944;48.240;16.478;2023-08-17T01:59:38;7.13;;;4.90;;
19593;SDS011;9944;48.240;16.478;2023-08-17T02:03:42;7.53;;;4.90;;
19593;SDS011;9944;48.240;16.478;2023-08-17T02:07:45;7.25;;;5.03;;
19593;SDS011;9944;48.240;16.478;2023-08-17T02:11:48;7.50;;;5.53;;
19593;SDS011;9944;48.240;16.478;2023-08-17T02:15:53;7.75;;;4.97;;
19593;SDS011;9944;48.240;16.478;2023-08-17T02:19:57;6.72;;;5.50;;
19593;SDS011;9944;48.240;16.478;2023-08-17T02:24:00;7.25;;;5.38;;
19593;SDS011;9944;48.240;16.478;2023-08-17T02:28:04;6.53;;;4.75;;
19593;SDS011;9944;48.240;16.478;2023-08-17T02:32:09;7.90;;;5.82;;
19593;SDS011;9944;48.240;16.478;2023-08-17T02:36:13;7.65;;;5.35;;
19593;SDS011;9944;48.240;16.478;2023-08-17T02:40:16;9.00;;;5.75;;
19593;SDS011;9944;48.240;16.478;2023-08-17T02:44:20;6.90;;;5.38;;
19593;SDS011;9944;48.240;16.478;2023-08-17T02:48:25;7.13;;;5.18;;
19593;SDS011;9944;48.240;16.478;2023-08-17T02:52:31;7.15;;;5.38;;
19593;SDS011;9944;48.240;16.478;2023-08-17T02:56:34;6.70;;;5.43;;
19593;SDS011;9944;48.240;16.478;2023-08-17T03:00:37;8.48;;;5.85;;
19593;SDS011;9944;48.240;16.478;2023-08-17T03:04:42;8.40;;;5.40;;
19593;SDS011;9944;48.240;16.478;2023-08-17T03:08:46;8.95;;;6.10;;
19593;SDS011;9944;48.240;16.478;2023-08-17T03:12:49;7.10;;;5.10;;
19593;SDS011;9944;48.240;16.478;2023-08-17T03:16:53;6.47;;;5.20;;
19593;SDS011;9944;48.240;16.478;2023-08-17T03:20:58;7.70;;;5.32;;
19593;SDS011;9944;48.240;16.478;2023-08-17T03:25:02;8.05;;;5.75;;
19593;SDS011;9944;48.240;16.478;2023-08-17T03:29:07;7.50;;;5.68;;
19593;SDS011;9944;48.240;16.478;2023-08-17T03:33:12;8.40;;;5.82;;
19593;SDS011;9944;48.240;16.478;2023-08-17T03:37:17;8.50;;;6.05;;
19593;SDS011;9944;48.240;16.478;2023-08-17T03:41:20;8.23;;;5.80;;
19593;SDS011;9944;48.240;16.478;2023-08-17T03:45:26;9.90;;;6.05;;
19593;SDS011;9944;48.240;16.478;2023-08-17T03:49:29;9.15;;;6.38;;
19593;SDS011;9944;48.240;16.478;2023-08-17T03:53:34;6.93;;;5.90;;
19593;SDS011;9944;48.240;16.478;2023-08-17T03:57:37;7.95;;;5.70;;
19593;SDS011;9944;48.240;16.478;2023-08-17T04:01:40;6.93;;;5.43;;
19593;SDS011;9944;48.240;16.478;2023-08-17T04:05:45;7.65;;;6.43;;
19593;SDS011;9944;48.240;16.478;2023-08-17T04:09:51;9.90;;;5.95;;
19593;SDS011;9944;48.240;16.478;2023-08-17T04:13:54;7.90;;;6.10;;
19593;SDS011;9944;48.240;16.478;2023-08-17T04:17:58;8.20;;;6.32;;
19593;SDS011;9944;48.240;16.478;2023-08-17T04:22:02;12.27;;;6.95;;
19593;SDS011;9944;48.240;16.478;2023-08-17T04:26:07;9.88;;;6.25;;
19593;SDS011;9944;48.240;16.478;2023-08-17T04:30:11;7.50;;;5.80;;
19593;SDS011;9944;48.240;16.478;2023-08-17T04:34:24;6.63;;;5.22;;
19593;SDS011;9944;48.240;16.478;2023-08-17T04:38:29;7.50;;;5.57;;
19593;SDS011;9944;48.240;16.478;2023-08-17T04:42:34;10.18;;;6.20;;
19593;SDS011;9944;48.240;16.478;2023-08-17T04:46:38;9.07;;;6.32;;
19593;SDS011;9944;48.240;16.478;2023-08-17T04:50:42;7.75;;;5.80;;
19593;SDS011;9944;48.240;16.478;2023-08-17T04:54:46;10.55;;;6.47;;
19593;SDS011;9944;48.240;16.478;2023-08-17T04:58:52;8.68;;;6.18;;
19593;SDS011;9944;48.240;16.478;2023-08-17T05:02:55;8.15;;;5.93;;
19593;SDS011;9944;48.240;16.478;2023-08-17T05:07:04;8.95;;;6.65;;
19593;SDS011;9944;48.240;16.478;2023-08-17T05:11:07;10.60;;;7.05;;
19593;SDS011;9944;48.240;16.478;2023-08-17T05:15:13;8.23;;;7.03;;
19593;SDS011;9944;48.240;16.478;2023-08-17T05:19:17;10.90;;;7.45;;
19593;SDS011;9944;48.240;16.478;2023-08-17T05:23:21;14.07;;;8.15;;
19593;SDS011;9944;48.240;16.478;2023-08-17T05:27:25;12.20;;;7.85;;
19593;SDS011;9944;48.240;16.478;2023-08-17T05:31:30;15.90;;;9.30;;
19593;SDS011;9944;48.240;16.478;2023-08-17T05:35:34;13.23;;;8.65;;
19593;SDS011;9944;48.240;16.478;2023-08-17T05:39:38;12.38;;;8.50;;
19593;SDS011;9944;48.240;16.478;2023-08-17T05:43:43;13.05;;;8.95;;
19593;SDS011;9944;48.240;16.478;2023-08-17T05:47:49;12.60;;;8.60;;
19593;SDS011;9944;48.240;16.478;2023-08-17T05:51:53;13.45;;;8.40;;
19593;SDS011;9944;48.240;16.478;2023-08-17T05:55:56;12.85;;;8.32;;
19593;SDS011;9944;48.240;16.478;2023-08-17T05:59:59;11.48;;;8.50;;
19593;SDS011;9944;48.240;16.478;2023-08-17T06:04:14;11.10;;;7.78;;
19593;SDS011;9944;48.240;16.478;2023-08-17T06:08:17;13.35;;;8.90;;
19593;SDS011;9944;48.240;16.478;2023-08-17T06:12:21;12.77;;;8.73;;
19593;SDS011;9944;48.240;16.478;2023-08-17T06:16:24;15.70;;;9.13;;
19593;SDS011;9944;48.240;16.478;2023-08-17T06:20:30;13.70;;;9.63;;
19593;SDS011;9944;48.240;16.478;2023-08-17T06:24:52;10.55;;;8.27;;
19593;SDS011;9944;48.240;16.478;2023-08-17T06:28:55;14.35;;;9.25;;
19593;SDS011;9944;48.240;16.478;2023-08-17T06:32:58;13.00;;;9.00;;
19593;SDS011;9944;48.240;16.478;2023-08-17T06:37:03;13.32;;;9.13;;
19593;SDS011;9944;48.240;16.478;2023-08-17T06:41:07;14.23;;;9.98;;
19593;SDS011;9944;48.240;16.478;2023-08-17T06:45:10;10.10;;;8.07;;
19593;SDS011;9944;48.240;16.478;2023-08-17T06:49:14;12.00;;;8.85;;
19593;SDS011;9944;48.240;16.478;2023-08-17T06:53:18;14.57;;;8.73;;
19593;SDS011;9944;48.240;16.478;2023-08-17T06:57:22;11.43;;;8.77;;
19593;SDS011;9944;48.240;16.478;2023-08-17T07:01:26;17.02;;;10.07;;
19593;SDS011;9944;48.240;16.478;2023-08-17T07:05:29;13.93;;;8.90;;
19593;SDS011;9944;48.240;16.478;2023-08-17T07:09:38;16.13;;;8.45;;
19593;SDS011;9944;48.240;16.478;2023-08-17T07:13:48;12.95;;;9.48;;
19593;SDS011;9944;48.240;16.478;2023-08-17T07:17:52;14.23;;;9.55;;
19593;SDS011;9944;48.240;16.478;2023-08-17T07:21:55;14.43;;;9.15;;
19593;SDS011;9944;48.240;16.478;2023-08-17T07:26:10;12.23;;;8.10;;
19593;SDS011;9944;48.240;16.478;2023-08-17T07:30:48;9.85;;;7.47;;
19593;SDS011;9944;48.240;16.478;2023-08-17T07:34:52;10.50;;;7.82;;
19593;SDS011;9944;48.240;16.478;2023-08-17T07:38:55;10.57;;;8.02;;
19593;SDS011;9944;48.240;16.478;2023-08-17T07:43:00;11.93;;;7.47;;
19593;SDS011;9944;48.240;16.478;2023-08-17T07:47:04;10.75;;;7.60;;
19593;SDS011;9944;48.240;16.478;2023-08-17T07:51:07;9.85;;;7.30;;
19593;SDS011;9944;48.240;16.478;2023-08-17T07:55:11;11.10;;;7.68;;
19593;SDS011;9944;48.240;16.478;2023-08-17T07:59:15;10.27;;;7.40;;
19593;SDS011;9944;48.240;16.478;2023-08-17T08:03:18;9.27;;;6.57;;
19593;SDS011;9944;48.240;16.478;2023-08-17T08:07:21;9.38;;;6.50;;
19593;SDS011;9944;48.240;16.478;2023-08-17T08:11:25;8.05;;;5.57;;
19593;SDS011;9944;48.240;16.478;2023-08-17T08:15:34;8.55;;;5.75;;
19593;SDS011;9944;48.240;16.478;2023-08-17T08:19:37;8.00;;;6.10;;
19593;SDS011;9944;48.240;16.478;2023-08-17T08:23:41;7.97;;;5.65;;
19593;SDS011;9944;48.240;16.478;2023-08-17T08:27:44;9.20;;;6.95;;
19593;SDS011;9944;48.240;16.478;2023-08-17T08:31:49;11.90;;;6.93;;
19593;SDS011;9944;48.240;16.478;2023-08-17T08:35:52;7.45;;;5.65;;
19593;SDS011;9944;48.240;16.478;2023-08-17T08:39:55;9.65;;;6.30;;
19593;SDS011;9944;48.240;16.478;2023-08-17T08:43:59;8.70;;;6.05;;
19593;SDS011;9944;48.240;16.478;2023-08-17T08:48:04;8.38;;;6.20;;
19593;SDS011;9944;48.240;16.478;2023-08-17T08:52:08;8.15;;;5.93;;
19593;SDS011;9944;48.240;16.478;2023-08-17T08:56:16;11.93;;;6.32;;
19593;SDS011;9944;48.240;16.478;2023-08-17T09:00:24;7.35;;;5.60;;
19593;SDS011;9944;48.240;16.478;2023-08-17T09:04:32;9.18;;;5.70;;
19593;SDS011;9944;48.240;16.478;2023-08-17T09:08:39;8.45;;;5.40;;
19593;SDS011;9944;48.240;16.478;2023-08-17T09:12:47;6.78;;;5.60;;
19593;SDS011;9944;48.240;16.478;2023-08-17T09:16:51;7.10;;;5.05;;
19593;SDS011;9944;48.240;16.478;2023-08-17T09:20:56;6.20;;;5.20;;
19593;SDS011;9944;48.240;16.478;2023-08-17T09:24:59;7.65;;;5.10;;
19593;SDS011;9944;48.240;16.478;2023-08-17T09:29:16;6.65;;;4.95;;
19593;SDS011;9944;48.240;16.478;2023-08-17T09:33:21;6.35;;;5.00;;
19593;SDS011;9944;48.240;16.478;2023-08-17T09:37:26;7.13;;;5.43;;
19593;SDS011;9944;48.240;16.478;2023-08-17T09:41:30;7.22;;;5.40;;
19593;SDS011;9944;48.240;16.478;2023-08-17T09:45:44;7.50;;;5.72;;
19593;SDS011;9944;48.240;16.478;2023-08-17T09:49:49;8.25;;;5.30;;
19593;SDS011;9944;48.240;16.478;2023-08-17T09:54:04;10.73;;;6.38;;
19593;SDS011;9944;48.240;16.478;2023-08-17T09:58:07;12.52;;;6.10;;
19593;SDS011;9944;48.240;16.478;2023-08-17T10:07:10;10.57;;;6.00;;
19593;SDS011;9944;48.240;16.478;2023-08-17T10:11:19;7.68;;;5.72;;
19593;SDS011;9944;48.240;16.478;2023-08-17T10:15:24;7.10;;;6.28;;
19593;SDS011;9944;48.240;16.478;2023-08-17T10:19:33;7.45;;;5.63;;
19593;SDS011;9944;48.240;16.478;2023-08-17T10:23:45;6.80;;;5.35;;
19593;SDS011;9944;48.240;16.478;2023-08-17T10:27:51;7.18;;;5.97;;
19593;SDS011;9944;48.240;16.478;2023-08-17T10:32:00;8.63;;;5.78;;
19593;SDS011;9944;48.240;16.478;2023-08-17T10:36:04;5.93;;;5.05;;
19593;SDS011;9944;48.240;16.478;2023-08-17T10:40:08;7.32;;;5.68;;
19593;SDS011;9944;48.240;16.478;2023-08-17T10:44:18;7.72;;;5.75;;
19593;SDS011;9944;48.240;16.478;2023-08-17T10:48:42;6.78;;;5.55;;
19593;SDS011;9944;48.240;16.478;2023-08-17T10:52:47;9.00;;;5.68;;
19593;SDS011;9944;48.240;16.478;2023-08-17T10:56:51;5.90;;;5.30;;
19593;SDS011;9944;48.240;16.478;2023-08-17T11:00:56;8.48;;;4.82;;
19593;SDS011;9944;48.240;16.478;2023-08-17T11:04:59;6.78;;;4.78;;
19593;SDS011;9944;48.240;16.478;2023-08-17T11:09:06;8.20;;;5.57;;
19593;SDS011;9944;48.240;16.478;2023-08-17T11:13:10;7.32;;;4.78;;
19593;SDS011;9944;48.240;16.478;2023-08-17T11:17:14;5.20;;;4.57;;
19593;SDS011;9944;48.240;16.478;2023-08-17T11:21:17;6.47;;;4.90;;
19593;SDS011;9944;48.240;16.478;2023-08-17T11:25:21;4.53;;;4.13;;
19593;SDS011;9944;48.240;16.478;2023-08-17T11:29:30;6.10;;;4.38;;
19593;SDS011;9944;48.240;16.478;2023-08-17T11:33:36;5.00;;;4.50;;
19593;SDS011;9944;48.240;16.478;2023-08-17T11:37:40;5.15;;;3.85;;
19593;SDS011;9944;48.240;16.478;2023-08-17T11:41:43;4.00;;;3.50;;
19593;SDS011;9944;48.240;16.478;2023-08-17T11:45:47;6.18;;;3.55;;
19593;SDS011;9944;48.240;16.478;2023-08-17T11:50:00;6.55;;;4.05;;
19593;SDS011;9944;48.240;16.478;2023-08-17T11:54:25;5.25;;;4.10;;
19593;SDS011;9944;48.240;16.478;2023-08-17T11:58:42;3.60;;;3.10;;
19593;SDS011;9944;48.240;16.478;2023-08-17T12:02:50;3.28;;;2.97;;
19593;SDS011;9944;48.240;16.478;2023-08-17T12:07:00;5.05;;;4.03;;
19593;SDS011;9944;48.240;16.478;2023-08-17T12:11:10;4.75;;;3.30;;
19593;SDS011;9944;48.240;16.478;2023-08-17T12:15:17;3.55;;;3.15;;
19593;SDS011;9944;48.240;16.478;2023-08-17T12:19:24;4.53;;;3.45;;
19593;SDS011;9944;48.240;16.478;2023-08-17T12:23:36;4.50;;;3.40;;
19593;SDS011;9944;48.240;16.478;2023-08-17T12:27:47;3.60;;;3.17;;
19593;SDS011;9944;48.240;16.478;2023-08-17T12:31:54;3.65;;;3.22;;
19593;SDS011;9944;48.240;16.478;2023-08-17T12:36:03;3.85;;;3.45;;
19593;SDS011;9944;48.240;16.478;2023-08-17T12:40:14;4.13;;;3.40;;
19593;SDS011;9944;48.240;16.478;2023-08-17T12:44:21;3.67;;;3.38;;
19593;SDS011;9944;48.240;16.478;2023-08-17T12:48:31;4.85;;;3.85;;
19593;SDS011;9944;48.240;16.478;2023-08-17T12:52:38;4.20;;;3.22;;
19593;SDS011;9944;48.240;16.478;2023-08-17T12:56:50;3.55;;;3.17;;
19593;SDS011;9944;48.240;16.478;2023-08-17T13:01:01;5.45;;;3.22;;
19593;SDS011;9944;48.240;16.478;2023-08-17T13:05:08;4.50;;;3.70;;
19593;SDS011;9944;48.240;16.478;2023-08-17T13:09:15;4.70;;;3.38;;
19593;SDS011;9944;48.240;16.478;2023-08-17T13:13:27;3.60;;;3.30;;
19593;SDS011;9944;48.240;16.478;2023-08-17T13:17:30;5.40;;;3.78;;
19593;SDS011;9944;48.240;16.478;2023-08-17T13:21:34;5.45;;;3.78;;
19593;SDS011;9944;48.240;16.478;2023-08-17T13:25:37;8.15;;;3.63;;
19593;SDS011;9944;48.240;16.478;2023-08-17T13:29:41;4.10;;;3.70;;
19593;SDS011;9944;48.240;16.478;2023-08-17T13:33:45;4.95;;;3.25;;
19593;SDS011;9944;48.240;16.478;2023-08-17T13:37:50;5.53;;;3.55;;
19593;SDS011;9944;48.240;16.478;2023-08-17T13:41:55;5.72;;;4.28;;
19593;SDS011;9944;48.240;16.478;2023-08-17T13:46:00;8.80;;;3.53;;
19593;SDS011;9944;48.240;16.478;2023-08-17T13:50:03;5.93;;;3.45;;
19593;SDS011;9944;48.240;16.478;2023-08-17T13:54:07;3.53;;;3.22;;
19593;SDS011;9944;48.240;16.478;2023-08-17T13:58:10;3.92;;;3.45;;
19593;SDS011;9944;48.240;16.478;2023-08-17T14:02:15;5.28;;;3.92;;
19593;SDS011;9944;48.240;16.478;2023-08-17T14:06:18;4.40;;;3.20;;
19593;SDS011;9944;48.240;16.478;2023-08-17T14:10:21;4.05;;;2.90;;
19593;SDS011;9944;48.240;16.478;2023-08-17T14:14:39;4.80;;;3.20;;
19593;SDS011;9944;48.240;16.478;2023-08-17T14:18:44;5.55;;;3.20;;
19593;SDS011;9944;48.240;16.478;2023-08-17T14:22:47;4.53;;;3.13;;
19593;SDS011;9944;48.240;16.478;2023-08-17T14:26:51;4.47;;;3.50;;
19593;SDS011;9944;48.240;16.478;2023-08-17T14:30:54;6.25;;;3.10;;
19593;SDS011;9944;48.240;16.478;2023-08-17T14:34:58;3.50;;;3.10;;
19593;SDS011;9944;48.240;16.478;2023-08-17T14:39:01;3.25;;;2.95;;
19593;SDS011;9944;48.240;16.478;2023-08-17T14:43:05;4.88;;;3.40;;
19593;SDS011;9944;48.240;16.478;2023-08-17T14:47:08;3.83;;;3.15;;
19593;SDS011;9944;48.240;16.478;2023-08-17T14:51:16;4.18;;;3.22;;
19593;SDS011;9944;48.240;16.478;2023-08-17T14:55:19;6.65;;;4.07;;
19593;SDS011;9944;48.240;16.478;2023-08-17T14:59:23;4.13;;;3.30;;
19593;SDS011;9944;48.240;16.478;2023-08-17T15:03:26;6.10;;;3.40;;
19593;SDS011;9944;48.240;16.478;2023-08-17T15:07:32;3.97;;;3.55;;
19593;SDS011;9944;48.240;16.478;2023-08-17T15:11:37;4.30;;;2.97;;
19593;SDS011;9944;48.240;16.478;2023-08-17T15:15:41;9.25;;;3.20;;
19593;SDS011;9944;48.240;16.478;2023-08-17T15:19:44;3.03;;;2.10;;
19593;SDS011;9944;48.240;16.478;2023-08-17T15:23:49;3.63;;;2.35;;
19593;SDS011;9944;48.240;16.478;2023-08-17T15:27:52;3.28;;;2.95;;
19593;SDS011;9944;48.240;16.478;2023-08-17T15:31:56;4.03;;;3.05;;
19593;SDS011;9944;48.240;16.478;2023-08-17T15:35:59;3.22;;;2.85;;
19593;SDS011;9944;48.240;16.478;2023-08-17T15:40:05;3.85;;;3.40;;
19593;SDS011;9944;48.240;16.478;2023-08-17T15:44:08;3.47;;;3.13;;
19593;SDS011;9944;48.240;16.478;2023-08-17T15:48:12;5.47;;;3.22;;
19593;SDS011;9944;48.240;16.478;2023-08-17T15:52:15;4.95;;;3.42;;
19593;SDS011;9944;48.240;16.478;2023-08-17T15:56:20;4.30;;;3.42;;
19593;SDS011;9944;48.240;16.478;2023-08-17T16:00:23;4.75;;;3.47;;
19593;SDS011;9944;48.240;16.478;2023-08-17T16:04:26;4.50;;;3.55;;
19593;SDS011;9944;48.240;16.478;2023-08-17T16:08:29;3.83;;;3.28;;
19593;SDS011;9944;48.240;16.478;2023-08-17T16:12:50;3.83;;;3.35;;
19593;SDS011;9944;48.240;16.478;2023-08-17T16:16:53;9.18;;;3.40;;
19593;SDS011;9944;48.240;16.478;2023-08-17T16:20:58;4.28;;;3.40;;
19593;SDS011;9944;48.240;16.478;2023-08-17T16:25:01;6.10;;;3.97;;
19593;SDS011;9944;48.240;16.478;2023-08-17T16:29:06;3.30;;;3.00;;
19593;SDS011;9944;48.240;16.478;2023-08-17T16:33:09;3.05;;;2.75;;
19593;SDS011;9944;48.240;16.478;2023-08-17T16:37:17;3.63;;;2.90;;
19593;SDS011;9944;48.240;16.478;2023-08-17T16:41:20;3.42;;;2.80;;
19593;SDS011;9944;48.240;16.478;2023-08-17T16:45:25;5.35;;;3.00;;
19593;SDS011;9944;48.240;16.478;2023-08-17T16:49:28;3.53;;;3.22;;
19593;SDS011;9944;48.240;16.478;2023-08-17T16:53:31;5.95;;;3.17;;
19593;SDS011;9944;48.240;16.478;2023-08-17T16:57:34;5.93;;;3.42;;
19593;SDS011;9944;48.240;16.478;2023-08-17T17:01:39;3.40;;;3.00;;
19593;SDS011;9944;48.240;16.478;2023-08-17T17:05:42;4.13;;;3.30;;
19593;SDS011;9944;48.240;16.478;2023-08-17T17:09:46;3.17;;;2.88;;
19593;SDS011;9944;48.240;16.478;2023-08-17T17:13:50;4.00;;;3.15;;
19593;SDS011;9944;48.240;16.478;2023-08-17T17:17:55;5.68;;;3.15;;
19593;SDS011;9944;48.240;16.478;2023-08-17T17:21:59;3.90;;;3.00;;
19593;SDS011;9944;48.240;16.478;2023-08-17T17:26:02;4.40;;;3.63;;
19593;SDS011;9944;48.240;16.478;2023-08-17T17:30:09;4.75;;;4.25;;
19593;SDS011;9944;48.240;16.478;2023-08-17T17:34:15;4.68;;;3.55;;
19593;SDS011;9944;48.240;16.478;2023-08-17T17:38:18;4.32;;;3.88;;
19593;SDS011;9944;48.240;16.478;2023-08-17T17:42:22;4.15;;;3.55;;
19593;SDS011;9944;48.240;16.478;2023-08-17T17:46:25;5.63;;;4.03;;
19593;SDS011;9944;48.240;16.478;2023-08-17T17:50:29;3.67;;;3.17;;
19593;SDS011;9944;48.240;16.478;2023-08-17T17:54:33;4.80;;;3.85;;
19593;SDS011;9944;48.240;16.478;2023-08-17T17:58:39;5.50;;;4.13;;
19593;SDS011;9944;48.240;16.478;2023-08-17T18:02:42;4.90;;;3.67;;
19593;SDS011;9944;48.240;16.478;2023-08-17T18:06:46;4.07;;;3.67;;
19593;SDS011;9944;48.240;16.478;2023-08-17T18:10:49;4.95;;;3.85;;
19593;SDS011;9944;48.240;16.478;2023-08-17T18:14:53;4.97;;;3.72;;
19593;SDS011;9944;48.240;16.478;2023-08-17T18:18:57;3.80;;;3.42;;
19593;SDS011;9944;48.240;16.478;2023-08-17T18:23:02;4.05;;;3.65;;
19593;SDS011;9944;48.240;16.478;2023-08-17T18:27:05;4.95;;;4.30;;
19593;SDS011;9944;48.240;16.478;2023-08-17T18:31:09;4.38;;;3.78;;
19593;SDS011;9944;48.240;16.478;2023-08-17T18:35:12;6.00;;;4.15;;
19593;SDS011;9944;48.240;16.478;2023-08-17T18:39:17;7.18;;;4.38;;
19593;SDS011;9944;48.240;16.478;2023-08-17T18:43:20;5.15;;;4.10;;
19593;SDS011;9944;48.240;16.478;2023-08-17T18:47:24;4.90;;;4.40;;
19593;SDS011;9944;48.240;16.478;2023-08-17T18:51:27;4.75;;;4.20;;
19593;SDS011;9944;48.240;16.478;2023-08-17T18:55:33;4.53;;;4.05;;
19593;SDS011;9944;48.240;16.478;2023-08-17T18:59:36;5.15;;;3.80;;
19593;SDS011;9944;48.240;16.478;2023-08-17T19:03:39;6.47;;;5.15;;
19593;SDS011;9944;48.240;16.478;2023-08-17T19:07:42;6.68;;;4.30;;
19593;SDS011;9944;48.240;16.478;2023-08-17T19:11:47;4.72;;;4.13;;
19593;SDS011;9944;48.240;16.478;2023-08-17T19:15:50;9.55;;;4.68;;
19593;SDS011;9944;48.240;16.478;2023-08-17T19:19:54;6.03;;;4.80;;
19593;SDS011;9944;48.240;16.478;2023-08-17T19:23:57;4.97;;;4.45;;
19593;SDS011;9944;48.240;16.478;2023-08-17T19:28:03;6.93;;;4.43;;
19593;SDS011;9944;48.240;16.478;2023-08-17T19:32:06;6.18;;;4.68;;
19593;SDS011;9944;48.240;16.478;2023-08-17T19:36:10;7.15;;;4.70;;
19593;SDS011;9944;48.240;16.478;2023-08-17T19:40:13;5.60;;;4.32;;
19593;SDS011;9944;48.240;16.478;2023-08-17T19:44:18;5.40;;;4.88;;
19593;SDS011;9944;48.240;16.478;2023-08-17T19:48:21;7.50;;;4.97;;
19593;SDS011;9944;48.240;16.478;2023-08-17T19:52:24;6.60;;;5.32;;
19593;SDS011;9944;48.240;16.478;2023-08-17T19:56:27;6.53;;;5.05;;
19593;SDS011;9944;48.240;16.478;2023-08-17T20:00:32;6.15;;;5.50;;
19593;SDS011;9944;48.240;16.478;2023-08-17T20:04:35;6.05;;;5.20;;
19593;SDS011;9944;48.240;16.478;2023-08-17T20:08:39;6.15;;;5.07;;
19593;SDS011;9944;48.240;16.478;2023-08-17T20:12:42;6.78;;;5.32;;
19593;SDS011;9944;48.240;16.478;2023-08-17T20:16:48;5.97;;;4.93;;
19593;SDS011;9944;48.240;16.478;2023-08-17T20:20:52;8.52;;;5.03;;
19593;SDS011;9944;48.240;16.478;2023-08-17T20:24:57;5.68;;;4.70;;
19593;SDS011;9944;48.240;16.478;2023-08-17T20:29:00;5.85;;;5.25;;
19593;SDS011;9944;48.240;16.478;2023-08-17T20:33:05;9.45;;;5.72;;
19593;SDS011;9944;48.240;16.478;2023-08-17T20:37:09;7.57;;;5.28;;
19593;SDS011;9944;48.240;16.478;2023-08-17T20:41:12;6.18;;;5.15;;
19593;SDS011;9944;48.240;16.478;2023-08-17T20:45:15;5.97;;;4.70;;
19593;SDS011;9944;48.240;16.478;2023-08-17T20:49:20;6.35;;;5.05;;
19593;SDS011;9944;48.240;16.478;2023-08-17T20:53:23;7.22;;;5.75;;
19593;SDS011;9944;48.240;16.478;2023-08-17T20:57:27;7.00;;;5.22;;
19593;SDS011;9944;48.240;16.478;2023-08-17T21:01:31;6.93;;;5.20;;
19593;SDS011;9944;48.240;16.478;2023-08-17T21:05:36;6.05;;;5.10;;
19593;SDS011;9944;48.240;16.478;2023-08-17T21:09:40;6.25;;;5.07;;
19593;SDS011;9944;48.240;16.478;2023-08-17T21:13:43;7.43;;;4.88;;
19593;SDS011;9944;48.240;16.478;2023-08-17T21:17:46;6.00;;;4.68;;
19593;SDS011;9944;48.240;16.478;2023-08-17T21:21:51;6.45;;;5.63;;
19593;SDS011;9944;48.240;16.478;2023-08-17T21:25:54;7.65;;;5.40;;
19593;SDS011;9944;48.240;16.478;2023-08-17T21:29:58;6.03;;;5.18;;
19593;SDS011;9944;48.240;16.478;2023-08-17T21:34:02;7.38;;;5.15;;
19593;SDS011;9944;48.240;16.478;2023-08-17T21:38:07;7.38;;;4.65;;
19593;SDS011;9944;48.240;16.478;2023-08-17T21:42:10;6.07;;;4.80;;
19593;SDS011;9944;48.240;16.478;2023-08-17T21:46:13;6.97;;;5.25;;
19593;SDS011;9944;48.240;16.478;2023-08-17T21:50:16;5.38;;;4.80;;
19593;SDS011;9944;48.240;16.478;2023-08-17T21:54:21;5.43;;;4.47;;
19593;SDS011;9944;48.240;16.478;2023-08-17T21:58:24;6.00;;;4.88;;
19593;SDS011;9944;48.240;16.478;2023-08-17T22:02:28;9.23;;;5.18;;
19593;SDS011;9944;48.240;16.478;2023-08-17T22:06:31;6.80;;;4.68;;
19593;SDS011;9944;48.240;16.478;2023-08-17T22:10:35;6.78;;;5.20;;
19593;SDS011;9944;48.240;16.478;2023-08-17T22:14:38;6.82;;;5.05;;
19593;SDS011;9944;48.240;16.478;2023-08-17T22:18:42;5.78;;;4.97;;
19593;SDS011;9944;48.240;16.478;2023-08-17T22:22:45;7.28;;;5.40;;
19593;SDS011;9944;48.240;16.478;2023-08-17T22:26:50;6.43;;;5.20;;
19593;SDS011;9944;48.240;16.478;2023-08-17T22:31:01;6.93;;;5.32;;
19593;SDS011;9944;48.240;16.478;2023-08-17T22:35:05;7.72;;;5.70;;
19593;SDS011;9944;48.240;16.478;2023-08-17T22:39:11;5.88;;;4.90;;
19593;SDS011;9944;48.240;16.478;2023-08-17T22:43:16;8.82;;;5.30;;
19593;SDS011;9944;48.240;16.478;2023-08-17T22:47:20;6.32;;;5.13;;
19593;SDS011;9944;48.240;16.478;2023-08-17T22:51:23;7.72;;;5.45;;
19593;SDS011;9944;48.240;16.478;2023-08-17T22:55:26;5.97;;;5.07;;
19593;SDS011;9944;48.240;16.478;2023-08-17T22:59:31;6.43;;;5.00;;
19593;SDS011;9944;48.240;16.478;2023-08-17T23:03:34;6.65;;;5.65;;
19593;SDS011;9944;48.240;16.478;2023-08-17T23:07:37;7.50;;;5.43;;
19593;SDS011;9944;48.240;16.478;2023-08-17T23:11:41;5.22;;;4.70;;
19593;SDS011;9944;48.240;16.478;2023-08-17T23:15:45;7.43;;;4.85;;
19593;SDS011;9944;48.240;16.478;2023-08-17T23:19:48;7.30;;;5.20;;
19593;SDS011;9944;48.240;16.478;2023-08-17T23:23:52;5.50;;;5.00;;
19593;SDS011;9944;48.240;16.478;2023-08-17T23:27:55;5.47;;;4.80;;
19593;SDS011;9944;48.240;16.478;2023-08-17T23:32:00;6.95;;;5.13;;
19593;SDS011;9944;48.240;16.478;2023-08-17T23:36:21;6.40;;;4.72;;
19593;SDS011;9944;48.240;16.478;2023-08-17T23:40:24;6.00;;;4.95;;
19593;SDS011;9944;48.240;16.478;2023-08-17T23:44:27;4.85;;;4.32;;
19593;SDS011;9944;48.240;16.478;2023-08-17T23:48:33;6.30;;;4.90;;
19593;SDS011;9944;48.240;16.478;2023-08-17T23:52:36;5.47;;;4.90;;
19593;SDS011;9944;48.240;16.478;2023-08-17T23:56:40;6.45;;;5.10;;
